createdAt,value
2018-02-08T00:01:51.805Z,28.63
2018-02-08T00:04:20.139Z,30.30
2018-02-08T00:06:48.465Z,29.70
2018-02-08T00:09:16.795Z,27.97
2018-02-08T00:11:45.113Z,27.60
2018-02-08T00:14:13.452Z,28.97
2018-02-08T00:16:41.772Z,27.87
2018-02-08T00:19:10.101Z,29.90
2018-02-08T00:21:38.422Z,27.10
2018-02-08T00:24:06.759Z,28.03
2018-02-08T00:26:35.081Z,29.60
2018-02-08T00:29:03.427Z,28.10
2018-02-08T00:31:31.730Z,29.73
2018-02-08T00:34:00.069Z,29.60
2018-02-08T00:36:28.380Z,27.93
2018-02-08T00:38:57.474Z,29.93
2018-02-08T00:41:25.821Z,29.17
2018-02-08T00:43:54.145Z,30.37
2018-02-08T00:46:22.477Z,28.20
2018-02-08T00:48:50.787Z,30.30
2018-02-08T00:51:19.892Z,32.40
2018-02-08T00:53:48.985Z,29.97
2018-02-08T00:56:18.092Z,31.27
2018-02-08T00:58:46.408Z,33.43
2018-02-08T01:01:14.744Z,30.07
2018-02-08T01:03:43.068Z,31.20
2018-02-08T01:06:11.422Z,29.63
2018-02-08T01:08:39.730Z,29.80
2018-02-08T01:11:08.115Z,31.97
2018-02-08T01:13:36.432Z,29.87
2018-02-08T01:16:04.777Z,29.00
2018-02-08T01:18:33.108Z,31.27
2018-02-08T01:21:01.450Z,30.93
2018-02-08T01:23:30.616Z,29.97
2018-02-08T01:25:58.938Z,30.40
2018-02-08T01:28:28.033Z,29.63
2018-02-08T01:30:57.115Z,29.77
2018-02-08T01:33:25.451Z,30.80
2018-02-08T01:35:53.768Z,29.17
2018-02-08T01:38:22.108Z,30.17
2018-02-08T01:40:50.424Z,30.97
2018-02-08T01:43:18.764Z,29.50
2018-02-08T01:45:47.082Z,29.30
2018-02-08T01:48:15.418Z,29.50
2018-02-08T01:50:43.741Z,28.07
2018-02-08T01:53:13.213Z,28.20
2018-02-08T01:55:41.515Z,29.20
2018-02-08T01:58:09.892Z,29.60
2018-02-08T02:00:38.231Z,29.90
2018-02-08T02:03:06.569Z,30.20
2018-02-08T02:05:35.645Z,29.70
2018-02-08T02:08:03.976Z,29.70
2018-02-08T02:10:32.301Z,28.70
2018-02-08T02:13:00.637Z,30.07
2018-02-08T02:15:28.939Z,30.33
2018-02-08T02:17:57.279Z,29.40
2018-02-08T02:20:25.600Z,29.00
2018-02-08T02:22:53.947Z,30.93
2018-02-08T02:25:22.263Z,30.53
2018-02-08T02:27:50.600Z,29.83
2018-02-08T02:30:18.955Z,29.50
2018-02-08T02:32:48.020Z,27.27
2018-02-08T02:35:16.368Z,30.53
2018-02-08T02:37:44.692Z,30.10
2018-02-08T02:40:13.045Z,29.80
2018-02-08T02:42:41.352Z,28.43
2018-02-08T02:45:10.460Z,28.90
2018-02-08T02:47:39.635Z,30.87
2018-02-08T02:50:07.971Z,29.40
2018-02-08T02:52:36.348Z,28.70
2018-02-08T02:55:04.693Z,29.07
2018-02-08T02:57:33.784Z,28.40
2018-02-08T03:00:02.127Z,28.90
2018-02-08T03:02:30.461Z,30.50
2018-02-08T03:04:59.571Z,28.37
2018-02-08T03:07:27.885Z,28.10
2018-02-08T03:09:56.205Z,27.33
2018-02-08T03:12:25.303Z,28.10
2018-02-08T03:14:54.407Z,28.43
2018-02-08T03:17:22.833Z,29.57
2018-02-08T03:19:51.266Z,28.00
2018-02-08T03:22:20.386Z,29.90
2018-02-08T03:24:48.710Z,29.48
2018-02-08T03:27:17.057Z,30.27
2018-02-08T03:29:45.365Z,29.47
2018-02-08T03:32:13.698Z,28.60
2018-02-08T03:34:42.006Z,28.63
2018-02-08T03:37:10.339Z,28.77
2018-02-08T03:39:38.655Z,27.10
2018-02-08T03:42:07.005Z,29.60
2018-02-08T03:44:35.436Z,30.20
2018-02-08T03:47:03.757Z,28.67
2018-02-08T03:49:32.071Z,28.70
2018-02-08T03:52:00.395Z,29.57
2018-02-08T03:54:29.471Z,28.33
2018-02-08T03:56:58.588Z,28.15
2018-02-08T03:59:27.672Z,29.77
2018-02-08T04:01:56.018Z,27.57
2018-02-08T04:04:24.333Z,28.10
2018-02-08T04:06:53.415Z,30.10
2018-02-08T04:09:21.735Z,31.70
2018-02-08T04:11:50.056Z,29.07
2018-02-08T04:14:18.394Z,28.35
2018-02-08T04:16:47.471Z,30.27
2018-02-08T04:19:15.812Z,27.70
2018-02-08T04:21:44.127Z,30.13
2018-02-08T04:24:13.220Z,28.92
2018-02-08T04:26:41.551Z,28.08
2018-02-08T04:29:09.881Z,32.60
2018-02-08T04:31:38.200Z,31.80
2018-02-08T04:34:06.530Z,33.40
2018-02-08T04:36:35.620Z,32.95
2018-02-08T04:39:15.627Z,31.20
2018-02-08T04:41:55.855Z,30.25
2018-02-08T04:44:35.830Z,31.80
2018-02-08T04:47:21.874Z,32.35
2018-02-08T04:49:50.978Z,31.10
2018-02-08T04:52:20.056Z,32.47
2018-02-08T04:54:48.381Z,33.00
2018-02-08T04:57:16.682Z,29.83
2018-02-08T04:59:45.027Z,34.70
2018-02-08T05:02:20.118Z,33.40
2018-02-08T05:04:48.549Z,32.57
2018-02-08T05:07:16.845Z,32.83
2018-02-08T05:09:45.182Z,32.57
2018-02-08T05:12:14.267Z,33.87
2018-02-08T05:14:42.600Z,33.77
2018-02-08T05:17:10.902Z,33.73
2018-02-08T05:19:39.234Z,35.80
2018-02-08T05:22:07.547Z,33.50
2018-02-08T05:24:35.931Z,31.97
2018-02-08T05:27:04.239Z,33.03
2018-02-08T05:29:32.557Z,34.83
2018-02-08T05:32:00.897Z,33.00
2018-02-08T05:34:29.233Z,34.50
2018-02-08T05:36:57.568Z,32.10
2018-02-08T05:39:26.654Z,31.57
2018-02-08T05:41:54.995Z,32.03
2018-02-08T05:44:23.298Z,30.73
2018-02-08T05:46:51.637Z,33.80
2018-02-08T05:49:20.711Z,34.30
2018-02-08T05:51:49.044Z,30.00
2018-02-08T05:54:17.353Z,31.30
2018-02-08T05:56:46.451Z,29.43
2018-02-08T05:59:14.760Z,30.83
2018-02-08T06:01:43.093Z,31.25
2018-02-08T06:04:12.183Z,28.83
2018-02-08T06:06:40.518Z,31.00
2018-02-08T06:09:08.831Z,29.45
2018-02-08T06:11:37.166Z,29.57
2018-02-08T06:14:05.479Z,29.17
2018-02-08T06:16:33.813Z,29.23
2018-02-08T06:19:02.176Z,30.83
2018-02-08T06:21:31.265Z,29.17
2018-02-08T06:24:00.335Z,30.67
2018-02-08T06:26:28.666Z,30.62
2018-02-08T06:28:56.992Z,29.70
2018-02-08T06:31:25.327Z,31.00
2018-02-08T06:33:53.637Z,31.60
2018-02-08T06:36:21.987Z,31.10
2018-02-08T06:38:50.291Z,31.23
2018-02-08T06:41:18.620Z,30.97
2018-02-08T06:43:46.922Z,31.02
2018-02-08T06:46:15.259Z,32.53
2018-02-08T06:48:44.326Z,32.97
2018-02-08T06:51:12.661Z,30.48
2018-02-08T06:53:40.975Z,31.12
2018-02-08T06:56:09.284Z,30.95
2018-02-08T06:58:37.632Z,31.87
2018-02-08T07:01:05.962Z,30.87
2018-02-08T07:03:34.299Z,31.75
2018-02-08T07:06:02.619Z,31.23
2018-02-08T07:08:30.954Z,31.95
2018-02-08T07:10:59.288Z,34.03
2018-02-08T07:13:27.624Z,29.92
2018-02-08T07:15:55.952Z,28.92
2018-02-08T07:18:24.295Z,31.60
2018-02-08T07:20:52.604Z,29.50
2018-02-08T07:23:20.952Z,34.25
2018-02-08T07:25:50.031Z,35.58
2018-02-08T07:28:18.363Z,32.30
2018-02-08T07:30:46.676Z,31.40
2018-02-08T07:33:15.019Z,30.15
2018-02-08T07:35:43.333Z,33.47
2018-02-08T07:38:11.669Z,31.50
2018-02-08T07:40:39.978Z,32.22
2018-02-08T07:43:08.311Z,31.87
2018-02-08T07:45:36.627Z,32.35
2018-02-08T07:48:04.962Z,30.90
2018-02-08T07:50:34.039Z,32.70
2018-02-08T07:53:02.367Z,31.15
2018-02-08T07:55:30.691Z,33.30
2018-02-08T07:57:59.003Z,39.15
2018-02-08T08:00:27.326Z,40.20
2018-02-08T08:02:56.215Z,37.47
2018-02-08T08:05:24.553Z,35.25
2018-02-08T08:07:52.870Z,38.10
2018-02-08T08:10:21.213Z,39.70
2018-02-08T08:12:49.531Z,37.43
2018-02-08T08:15:17.852Z,37.30
2018-02-08T08:17:46.936Z,31.87
2018-02-08T08:20:15.254Z,36.43
2018-02-08T08:22:43.573Z,37.67
2018-02-08T08:25:11.898Z,37.90
2018-02-08T08:27:40.213Z,38.30
2018-02-08T08:30:08.585Z,40.00
2018-02-08T08:32:36.886Z,38.50
2018-02-08T08:35:05.208Z,39.40
2018-02-08T08:37:34.286Z,37.27
2018-02-08T08:40:03.358Z,38.60
2018-02-08T08:42:31.700Z,41.50
2018-02-08T08:45:00.030Z,37.80
2018-02-08T08:47:28.360Z,37.87
2018-02-08T08:49:56.662Z,36.63
2018-02-08T08:52:24.986Z,38.90
2018-02-08T08:54:54.064Z,38.57
2018-02-08T08:57:22.395Z,38.43
2018-02-08T08:59:50.732Z,39.20
2018-02-08T09:02:19.828Z,39.53
2018-02-08T09:04:48.946Z,40.17
2018-02-08T09:07:17.283Z,37.40
2018-02-08T09:09:45.588Z,37.73
2018-02-08T09:12:14.680Z,39.20
2018-02-08T09:14:43.755Z,40.67
2018-02-08T09:17:12.091Z,39.40
2018-02-08T09:19:40.403Z,40.43
2018-02-08T09:22:08.735Z,40.00
2018-02-08T09:24:37.048Z,41.60
2018-02-08T09:27:05.414Z,41.67
2018-02-08T09:29:33.727Z,40.33
2018-02-08T09:32:02.044Z,40.47
2018-02-08T09:34:30.378Z,41.87
2018-02-08T09:36:58.682Z,42.17
2018-02-08T09:39:27.012Z,39.10
2018-02-08T09:41:55.326Z,39.20
2018-02-08T09:44:23.652Z,38.23
2018-02-08T09:46:51.954Z,39.30
2018-02-08T09:49:20.301Z,40.87
2018-02-08T09:51:48.646Z,42.80
2018-02-08T09:54:16.965Z,36.77
2018-02-08T09:56:45.286Z,42.87
2018-02-08T09:59:13.620Z,39.97
2018-02-08T10:01:41.942Z,39.90
2018-02-08T10:04:10.263Z,39.93
2018-02-08T10:06:38.583Z,40.20
2018-02-08T10:09:06.902Z,41.07
2018-02-08T10:11:35.977Z,39.90
2018-02-08T10:14:04.347Z,41.27
2018-02-08T10:16:32.662Z,39.77
2018-02-08T10:19:01.743Z,40.97
2018-02-08T10:21:30.836Z,40.97
2018-02-08T10:23:59.138Z,43.70
2018-02-08T10:26:27.463Z,41.50
2018-02-08T10:28:55.776Z,43.27
2018-02-08T10:31:24.871Z,42.67
2018-02-08T10:33:53.941Z,41.93
2018-02-08T10:36:22.253Z,38.47
2018-02-08T10:38:51.322Z,41.87
2018-02-08T10:41:19.653Z,45.13
2018-02-08T10:43:47.951Z,37.93
2018-02-08T10:46:16.271Z,40.67
2018-02-08T10:48:45.338Z,41.17
2018-02-08T10:51:13.668Z,43.80
2018-02-08T10:53:41.966Z,40.67
2018-02-08T10:56:10.298Z,40.20
2018-02-08T10:58:38.593Z,40.33
2018-02-08T11:01:06.928Z,40.93
2018-02-08T11:03:35.239Z,44.30
2018-02-08T11:06:03.597Z,41.20
2018-02-08T11:08:31.911Z,41.50
2018-02-08T11:11:01.079Z,41.57
2018-02-08T11:13:31.325Z,41.03
2018-02-08T11:16:00.403Z,40.30
2018-02-08T11:18:29.097Z,40.20
2018-02-08T11:20:57.398Z,43.33
2018-02-08T11:23:25.727Z,42.13
2018-02-08T11:25:54.040Z,41.53
2018-02-08T11:28:23.131Z,38.67
2018-02-08T11:30:52.213Z,39.93
2018-02-08T11:33:20.548Z,41.30
2018-02-08T11:35:49.665Z,40.07
2018-02-08T11:38:18.001Z,40.00
2018-02-08T11:40:48.421Z,40.80
2018-02-08T11:43:16.711Z,41.03
2018-02-08T11:45:45.013Z,39.07
2018-02-08T11:48:13.339Z,36.83
2018-02-08T11:50:42.416Z,39.10
2018-02-08T11:53:10.733Z,41.93
2018-02-08T11:55:39.048Z,39.80
2018-02-08T11:58:07.374Z,38.93
2018-02-08T12:00:35.681Z,37.57
2018-02-08T12:03:04.003Z,39.27
2018-02-08T12:05:32.322Z,40.40
2018-02-08T12:08:01.422Z,38.93
2018-02-08T12:10:29.722Z,41.10
2018-02-08T12:12:58.841Z,40.60
2018-02-08T12:15:27.157Z,41.67
2018-02-08T12:17:56.226Z,39.50
2018-02-08T12:20:24.572Z,39.37
2018-02-08T12:22:52.880Z,39.17
2018-02-08T12:25:21.210Z,40.03
2018-02-08T12:27:49.525Z,41.27
2018-02-08T12:30:17.838Z,39.70
2018-02-08T12:32:46.135Z,39.93
2018-02-08T12:35:15.214Z,40.67
2018-02-08T12:37:43.523Z,35.27
2018-02-08T12:40:11.837Z,39.07
2018-02-08T12:42:40.165Z,40.40
2018-02-08T12:45:09.252Z,38.23
2018-02-08T12:47:38.336Z,38.13
2018-02-08T12:50:06.664Z,39.93
2018-02-08T12:52:34.964Z,37.57
2018-02-08T12:55:03.627Z,39.50
2018-02-08T12:57:31.922Z,38.63
2018-02-08T13:00:00.273Z,38.70
2018-02-08T13:02:28.585Z,39.97
2018-02-08T13:04:56.888Z,39.20
2018-02-08T13:07:25.207Z,40.20
2018-02-08T13:09:53.502Z,40.73
2018-02-08T13:12:22.703Z,39.43
2018-02-08T13:14:51.022Z,41.57
2018-02-08T13:17:19.374Z,41.30
2018-02-08T13:19:47.682Z,40.50
2018-02-08T13:22:16.029Z,40.00
2018-02-08T13:24:44.337Z,39.53
2018-02-08T13:27:12.659Z,43.77
2018-02-08T13:29:40.954Z,40.80
2018-02-08T13:32:09.750Z,39.73
2018-02-08T13:34:38.137Z,41.87
2018-02-08T13:37:06.499Z,40.67
2018-02-08T13:39:35.228Z,41.30
2018-02-08T13:42:25.023Z,41.50
2018-02-08T13:44:53.317Z,42.20
2018-02-08T13:50:26.743Z,40.50
2018-02-08T13:53:00.851Z,49.00
2018-02-08T13:55:30.725Z,44.70
2018-02-08T13:58:04.616Z,39.87
2018-02-08T14:00:44.639Z,40.57
2018-02-08T14:03:12.979Z,40.47
2018-02-08T14:05:41.279Z,42.37
2018-02-08T14:08:10.362Z,41.00
2018-02-08T14:10:39.447Z,41.67
2018-02-08T14:13:07.766Z,42.13
2018-02-08T14:15:36.080Z,40.43
2018-02-08T14:18:04.411Z,40.90
2018-02-08T14:20:33.488Z,41.70
2018-02-08T14:23:01.820Z,41.00
2018-02-08T14:25:30.887Z,43.23
2018-02-08T14:27:59.978Z,41.00
2018-02-08T14:30:28.292Z,40.03
2018-02-08T14:32:57.471Z,42.13
2018-02-08T14:35:25.770Z,39.10
2018-02-08T14:37:54.100Z,40.30
2018-02-08T14:40:23.158Z,40.30
2018-02-08T14:42:51.479Z,41.50
2018-02-08T14:45:20.563Z,39.90
2018-02-08T14:47:48.871Z,42.87
2018-02-08T14:50:17.179Z,40.50
2018-02-08T14:52:45.502Z,40.13
2018-02-08T14:55:14.568Z,41.27
2018-02-08T14:57:42.867Z,41.20
2018-02-08T15:00:11.186Z,41.23
2018-02-08T15:02:41.440Z,38.87
2018-02-08T15:05:09.771Z,42.60
2018-02-08T15:07:38.836Z,39.00
2018-02-08T15:10:07.175Z,41.80
2018-02-08T15:12:35.497Z,41.17
2018-02-08T15:15:03.825Z,42.90
2018-02-08T15:17:32.131Z,39.60
2018-02-08T15:20:00.463Z,41.17
2018-02-08T15:22:29.531Z,41.97
2018-02-08T15:24:57.857Z,42.60
2018-02-08T15:27:26.151Z,43.40
2018-02-08T15:29:54.475Z,40.70
2018-02-08T15:32:23.555Z,40.73
2018-02-08T15:34:51.875Z,41.63
2018-02-08T15:37:20.184Z,39.10
2018-02-08T15:39:48.515Z,39.60
2018-02-08T15:42:17.582Z,39.50
2018-02-08T15:44:45.934Z,41.70
2018-02-08T15:47:14.232Z,41.10
2018-02-08T15:49:42.538Z,40.47
2018-02-08T15:52:11.626Z,43.90
2018-02-08T15:54:39.917Z,44.53
2018-02-08T15:57:08.250Z,40.87
2018-02-08T15:59:36.554Z,43.57
2018-02-08T16:02:04.884Z,43.27
2018-02-08T16:04:33.211Z,41.63
2018-02-08T16:07:01.537Z,43.40
2018-02-08T16:09:29.838Z,39.97
2018-02-08T16:11:58.227Z,39.30
2018-02-08T16:14:30.010Z,40.37
2018-02-08T16:16:58.329Z,44.80
2018-02-08T16:19:26.651Z,44.67
2018-02-08T16:21:54.974Z,43.87
2018-02-08T16:24:23.279Z,44.43
2018-02-08T16:26:51.598Z,42.10
2018-02-08T16:29:19.898Z,43.53
2018-02-08T16:31:48.992Z,44.93
2018-02-08T16:34:18.059Z,42.90
2018-02-08T16:36:46.388Z,42.43
2018-02-08T16:39:14.704Z,41.93
2018-02-08T16:41:43.209Z,43.73
2018-02-08T16:44:11.562Z,40.30
2018-02-08T16:46:39.891Z,40.83
2018-02-08T16:52:10.314Z,39.77
2018-02-08T16:54:38.621Z,43.80
2018-02-08T16:57:07.714Z,42.30
2018-02-08T16:59:36.802Z,39.17
2018-02-08T17:02:05.900Z,41.63
2018-02-08T17:04:34.984Z,38.13
2018-02-08T17:07:03.309Z,38.70
2018-02-08T17:09:31.623Z,41.10
2018-02-08T17:11:59.948Z,41.37
2018-02-08T17:14:28.260Z,41.27
2018-02-08T17:16:56.576Z,41.47
2018-02-08T17:19:24.920Z,38.83
2018-02-08T17:21:53.231Z,40.50
2018-02-08T17:24:21.559Z,41.60
2018-02-08T17:26:49.881Z,42.30
2018-02-08T17:29:18.212Z,39.93
2018-02-08T17:31:46.528Z,40.70
2018-02-08T17:34:14.863Z,39.57
2018-02-08T17:36:43.172Z,38.90
2018-02-08T17:39:11.504Z,43.17
2018-02-08T17:41:39.819Z,37.50
2018-02-08T17:44:08.136Z,39.63
2018-02-08T17:46:36.454Z,40.07
2018-02-08T17:49:04.781Z,39.43
2018-02-08T17:51:33.092Z,39.47
2018-02-08T17:54:02.187Z,39.37
2018-02-08T17:56:31.276Z,38.53
2018-02-08T17:58:59.604Z,43.60
2018-02-08T18:01:27.904Z,39.80
2018-02-08T18:03:56.232Z,41.17
2018-02-08T18:06:24.551Z,39.00
2018-02-08T18:08:52.879Z,39.80
2018-02-08T18:11:21.187Z,40.07
2018-02-08T18:13:49.529Z,41.17
2018-02-08T18:16:17.846Z,41.87
2018-02-08T18:18:46.157Z,42.40
2018-02-08T18:21:14.506Z,44.83
2018-02-08T18:23:42.803Z,42.30
2018-02-08T18:26:11.133Z,41.97
2018-02-08T18:28:39.439Z,39.03
2018-02-08T18:31:07.758Z,41.83
2018-02-08T18:33:36.076Z,43.10
2018-02-08T18:36:04.397Z,42.87
2018-02-08T18:38:32.706Z,46.43
2018-02-08T18:41:01.815Z,42.53
2018-02-08T18:43:30.884Z,43.87
2018-02-08T18:45:59.225Z,49.97
2018-02-08T18:48:27.540Z,45.30
2018-02-08T18:50:55.870Z,47.10
2018-02-08T18:53:24.182Z,45.50
2018-02-08T18:55:52.512Z,45.43
2018-02-08T18:58:20.830Z,46.70
2018-02-08T19:00:49.164Z,45.70
2018-02-08T19:03:17.472Z,45.57
2018-02-08T19:05:45.808Z,43.27
2018-02-08T19:08:14.885Z,44.00
2018-02-08T19:10:43.215Z,43.83
2018-02-08T19:13:11.518Z,43.70
2018-02-08T19:15:39.841Z,43.10
2018-02-08T19:18:08.150Z,39.40
2018-02-08T19:20:36.493Z,44.17
2018-02-08T19:23:05.568Z,43.67
2018-02-08T19:25:33.906Z,41.47
2018-02-08T19:28:02.208Z,40.23
2018-02-08T19:30:30.542Z,41.40
2018-02-08T19:32:58.849Z,39.17
2018-02-08T19:35:27.159Z,39.27
2018-02-08T19:37:55.488Z,38.17
2018-02-08T19:40:24.573Z,39.43
2018-02-08T19:42:52.973Z,40.70
2018-02-08T19:45:21.299Z,38.70
2018-02-08T19:47:49.631Z,38.40
2018-02-08T19:50:17.938Z,38.90
2018-02-08T19:52:46.262Z,36.83
2018-02-08T19:55:14.582Z,42.07
2018-02-08T19:57:42.913Z,39.30
2018-02-08T20:00:21.257Z,39.83
2018-02-08T20:02:49.596Z,37.93
2018-02-08T20:05:18.675Z,40.23
2018-02-08T20:07:47.032Z,38.90
2018-02-08T20:10:15.341Z,40.23
2018-02-08T20:12:43.732Z,39.03
2018-02-08T20:15:12.813Z,39.03
2018-02-08T20:17:41.141Z,39.83
2018-02-08T20:20:10.220Z,37.60
2018-02-08T20:22:38.562Z,40.43
2018-02-08T20:25:12.542Z,38.33
2018-02-08T20:27:40.863Z,40.80
2018-02-08T20:30:09.934Z,39.80
2018-02-08T20:32:38.271Z,42.10
2018-02-08T20:35:06.600Z,38.10
2018-02-08T20:37:34.918Z,41.10
2018-02-08T20:40:03.222Z,37.67
2018-02-08T20:42:37.147Z,38.13
2018-02-08T20:45:05.460Z,37.97
2018-02-08T20:47:34.566Z,38.73
2018-02-08T20:50:03.635Z,38.23
2018-02-08T20:52:31.972Z,40.30
2018-02-08T20:55:01.108Z,39.80
2018-02-08T20:57:29.438Z,40.80
2018-02-08T20:59:57.756Z,40.00
2018-02-08T21:02:26.100Z,40.13
2018-02-08T21:04:54.443Z,39.57
2018-02-08T21:07:23.553Z,38.33
2018-02-08T21:09:52.632Z,39.30
2018-02-08T21:12:20.964Z,39.80
2018-02-08T21:14:49.279Z,40.53
2018-02-08T21:17:17.612Z,39.50
2018-02-08T21:19:45.923Z,42.77
2018-02-08T21:22:14.273Z,40.20
2018-02-08T21:24:42.579Z,42.20
2018-02-08T21:27:11.690Z,42.07
2018-02-08T21:29:39.996Z,38.97
2018-02-08T21:32:09.088Z,38.70
2018-02-08T21:34:38.172Z,39.43
2018-02-08T21:37:07.266Z,40.37
2018-02-08T21:39:36.360Z,41.47
2018-02-08T21:42:05.461Z,41.63
2018-02-08T21:44:34.539Z,40.50
2018-02-08T21:47:02.858Z,40.07
2018-02-08T21:49:31.166Z,43.53
2018-02-08T21:51:59.499Z,39.43
2018-02-08T21:54:28.655Z,40.20
2018-02-08T21:56:57.016Z,41.10
2018-02-08T21:59:25.310Z,44.17
2018-02-08T22:01:53.638Z,40.57
2018-02-08T22:04:22.712Z,43.40
2018-02-08T22:06:51.810Z,39.03
2018-02-08T22:09:20.894Z,39.50
2018-02-08T22:11:49.234Z,42.90
2018-02-08T22:14:17.543Z,39.37
2018-02-08T22:16:45.916Z,38.70
2018-02-08T22:19:14.213Z,38.43
2018-02-08T22:21:42.522Z,41.80
2018-02-08T22:24:10.859Z,40.97
2018-02-08T22:26:39.170Z,37.88
2018-02-08T22:29:07.512Z,38.60
2018-02-08T22:31:35.831Z,39.03
2018-02-08T22:34:04.919Z,36.33
2018-02-08T22:36:34.002Z,38.90
2018-02-08T22:39:02.326Z,39.90
2018-02-08T22:41:30.631Z,39.60
2018-02-08T22:43:58.955Z,38.63
2018-02-08T22:46:28.018Z,41.40
2018-02-08T22:48:56.366Z,39.37
2018-02-08T22:51:24.676Z,39.67
2018-02-08T22:53:53.014Z,38.77
2018-02-08T22:56:21.334Z,39.30
2018-02-08T22:58:49.679Z,38.58
2018-02-08T23:01:17.979Z,36.10
2018-02-08T23:03:46.320Z,40.10
2018-02-08T23:06:14.636Z,40.87
2018-02-08T23:08:42.968Z,40.00
2018-02-08T23:11:11.282Z,39.67
2018-02-08T23:13:39.630Z,41.88
2018-02-08T23:16:07.934Z,39.08
2018-02-08T23:18:36.263Z,38.50
2018-02-08T23:21:05.394Z,39.60
2018-02-08T23:23:33.721Z,39.07
2018-02-08T23:26:02.027Z,38.00
2018-02-08T23:28:31.142Z,39.10
2018-02-08T23:30:59.449Z,37.90
2018-02-08T23:33:27.777Z,37.90
2018-02-08T23:35:56.096Z,39.23
2018-02-08T23:38:24.453Z,38.67
2018-02-08T23:40:52.768Z,39.17
2018-02-08T23:43:21.078Z,38.67
2018-02-08T23:45:50.187Z,39.28
2018-02-08T23:48:18.499Z,39.40
2018-02-08T23:50:46.852Z,39.60
2018-02-08T23:53:15.163Z,41.60
2018-02-08T23:55:43.499Z,43.43
2018-02-08T23:58:11.816Z,42.22
